Time;durP1;ratioP1;P1;durP2;ratioP2;P2;SDS_P1;SDS_P2;PMS_P1;PMS_P2;Temp;Humidity;BMP_temperature;BMP_pressure;BME280_temperature;BME280_humidity;BME280_pressure;Samples;Min_cycle;Max_cycle;Signal;HPM_P1;HPM_P2
2023/11/07 00:01:57;;;;;;;10.80;5.50;;;9.60;99.90;;;;;;5102647;28;20193;-49
2023/11/07 00:04:23;;;;;;;11.47;6.03;;;9.60;99.90;;;;;;5094854;28;20206;-52
2023/11/07 00:06:51;;;;;;;8.23;6.10;;;9.60;99.90;;;;;;5101966;28;20205;-47
2023/11/07 00:09:18;;;;;;;7.40;5.50;;;9.60;99.90;;;;;;5106596;27;20193;-47
2023/11/07 00:11:44;;;;;;;10.57;5.90;;;9.60;99.90;;;;;;5085258;27;20221;-50
2023/11/07 00:14:12;;;;;;;10.53;6.23;;;9.50;99.90;;;;;;5095324;28;20194;-46
2023/11/07 00:16:39;;;;;;;12.63;6.47;;;9.60;99.90;;;;;;5103903;28;20204;-48
2023/11/07 00:19:07;;;;;;;9.50;6.20;;;9.50;99.90;;;;;;5094066;27;20816;-49
2023/11/07 00:21:34;;;;;;;9.17;6.07;;;9.50;99.90;;;;;;5109338;27;20189;-52
2023/11/07 00:24:01;;;;;;;7.63;6.43;;;9.60;99.90;;;;;;5101619;28;20989;-45
2023/11/07 00:26:28;;;;;;;9.27;6.60;;;9.60;99.90;;;;;;5105022;28;20209;-48
2023/11/07 00:29:11;;;;;;;6.40;5.50;;;9.60;99.90;;;;;;5072046;27;20220;-50
2023/11/07 00:31:38;;;;;;;7.50;6.30;;;9.60;99.90;;;;;;5103612;28;20205;-46
2023/11/07 00:34:07;;;;;;;13.47;6.43;;;9.60;99.90;;;;;;5102397;28;20242;-47
2023/11/07 00:36:34;;;;;;;7.20;5.27;;;9.50;99.90;;;;;;5102090;27;20201;-49
2023/11/07 00:39:01;;;;;;;14.47;6.30;;;9.50;99.90;;;;;;5101486;28;20181;-49
2023/11/07 00:41:29;;;;;;;7.23;6.23;;;9.50;99.90;;;;;;5108276;27;20200;-51
2023/11/07 00:43:56;;;;;;;8.10;6.07;;;9.50;99.90;;;;;;5066200;27;20274;-49
2023/11/07 00:46:23;;;;;;;9.60;6.70;;;9.50;99.90;;;;;;5104742;28;20220;-48
2023/11/07 00:48:50;;;;;;;8.43;6.50;;;9.50;99.90;;;;;;5097125;28;20225;-50
2023/11/07 00:51:18;;;;;;;11.27;6.60;;;9.50;99.90;;;;;;5094283;28;20274;-46
2023/11/07 00:53:45;;;;;;;7.93;5.83;;;9.50;99.90;;;;;;5102049;28;20198;-46
2023/11/07 00:56:11;;;;;;;10.13;6.70;;;9.50;99.90;;;;;;5103270;28;20213;-50
2023/11/07 00:58:38;;;;;;;10.87;6.10;;;9.40;99.90;;;;;;5081156;28;20202;-47
2023/11/07 01:01:05;;;;;;;9.37;5.87;;;9.40;99.90;;;;;;5092140;27;20197;-45
2023/11/07 01:03:32;;;;;;;10.67;6.50;;;9.30;99.90;;;;;;5100529;27;20261;-46
2023/11/07 01:05:59;;;;;;;6.13;5.50;;;9.30;99.90;;;;;;5093041;28;20240;-48
2023/11/07 01:08:27;;;;;;;6.23;5.73;;;9.30;99.90;;;;;;5103725;27;20181;-47
2023/11/07 01:10:54;;;;;;;10.20;5.70;;;9.30;99.90;;;;;;5102815;28;20204;-49
2023/11/07 01:13:22;;;;;;;7.87;6.03;;;9.30;99.90;;;;;;5100887;28;21098;-44
2023/11/07 01:15:48;;;;;;;12.00;6.27;;;9.30;99.90;;;;;;5068611;27;20213;-44
2023/11/07 01:18:15;;;;;;;6.53;5.67;;;9.30;99.90;;;;;;5103210;27;20246;-47
2023/11/07 01:20:42;;;;;;;8.10;5.37;;;9.30;99.90;;;;;;5104340;27;20189;-46
2023/11/07 01:23:09;;;;;;;8.93;5.63;;;9.20;99.90;;;;;;5098436;27;20654;-49
2023/11/07 01:25:37;;;;;;;12.03;6.00;;;9.20;99.90;;;;;;5101783;28;20229;-48
2023/11/07 01:28:04;;;;;;;9.63;5.60;;;9.20;99.90;;;;;;5104711;27;20571;-49
2023/11/07 01:30:31;;;;;;;8.60;6.13;;;9.20;99.90;;;;;;5066943;27;21300;-46
2023/11/07 01:32:58;;;;;;;8.90;5.60;;;9.20;99.90;;;;;;5107367;27;20271;-49
2023/11/07 01:35:25;;;;;;;8.47;5.93;;;9.10;99.90;;;;;;5106769;27;20209;-47
2023/11/07 01:37:52;;;;;;;6.63;6.00;;;9.10;99.90;;;;;;5099906;27;20193;-45
2023/11/07 01:40:19;;;;;;;8.90;5.60;;;9.20;99.90;;;;;;5098268;28;20189;-45
2023/11/07 01:42:48;;;;;;;9.63;6.10;;;9.10;99.90;;;;;;5092573;28;20250;-48
2023/11/07 01:45:16;;;;;;;10.27;5.73;;;9.10;99.90;;;;;;5099352;28;20313;-45
2023/11/07 01:47:44;;;;;;;8.43;5.97;;;9.10;99.90;;;;;;5065293;28;20760;-48
2023/11/07 01:50:13;;;;;;;11.33;6.50;;;9.10;99.90;;;;;;5101577;28;20201;-45
2023/11/07 01:52:41;;;;;;;6.63;5.93;;;9.10;99.90;;;;;;5091268;28;20202;-50
2023/11/07 01:55:09;;;;;;;8.93;6.17;;;9.10;99.90;;;;;;5099643;28;20205;-43
2023/11/07 01:57:37;;;;;;;5.93;5.33;;;9.10;99.90;;;;;;5101717;28;20184;-46
2023/11/07 02:00:11;;;;;;;6.60;5.87;;;9.10;99.90;;;;;;5098793;28;20683;-45
2023/11/07 02:02:39;;;;;;;10.60;5.80;;;9.10;99.90;;;;;;5068915;28;20205;-50
2023/11/07 02:05:06;;;;;;;12.03;6.27;;;9.20;99.90;;;;;;5099958;28;20270;-49
2023/11/07 02:07:34;;;;;;;8.23;5.70;;;9.20;99.90;;;;;;5093075;28;20205;-46
2023/11/07 02:10:01;;;;;;;8.53;6.10;;;9.20;99.90;;;;;;5099160;28;20185;-49
2023/11/07 02:12:28;;;;;;;10.77;5.40;;;9.20;99.90;;;;;;5101765;28;20695;-47
2023/11/07 02:14:56;;;;;;;9.53;5.80;;;9.20;99.90;;;;;;5097584;28;20205;-48
2023/11/07 02:17:24;;;;;;;6.80;5.70;;;9.20;99.90;;;;;;5067009;27;20201;-49
2023/11/07 02:19:51;;;;;;;10.53;5.43;;;9.30;99.90;;;;;;5099840;27;20686;-49
2023/11/07 02:22:21;;;;;;;11.67;5.80;;;9.30;99.90;;;;;;5103213;28;20205;-46
2023/11/07 02:24:49;;;;;;;9.60;6.00;;;9.30;99.90;;;;;;5088730;28;20225;-47
2023/11/07 02:27:18;;;;;;;10.00;6.20;;;9.30;99.90;;;;;;5098155;28;20221;-46
2023/11/07 02:29:47;;;;;;;11.60;5.77;;;9.30;99.90;;;;;;5100402;28;20201;-48
2023/11/07 02:32:15;;;;;;;6.90;6.17;;;9.30;99.90;;;;;;5065898;28;20238;-45
2023/11/07 02:34:42;;;;;;;10.87;5.83;;;9.30;99.90;;;;;;5101709;28;20213;-48
2023/11/07 02:37:08;;;;;;;10.63;5.80;;;9.20;99.90;;;;;;5099484;28;20250;-45
2023/11/07 02:39:39;;;;;;;7.90;6.40;;;9.30;99.90;;;;;;5092223;28;20297;-50
2023/11/07 02:42:07;;;;;;;7.87;5.27;;;9.30;99.90;;;;;;5098940;28;20199;-48
2023/11/07 02:44:34;;;;;;;9.50;5.67;;;9.30;99.90;;;;;;5100429;28;20300;-47
2023/11/07 02:47:01;;;;;;;8.10;5.73;;;9.30;99.90;;;;;;5099281;28;20714;-46
2023/11/07 02:49:29;;;;;;;10.13;5.37;;;9.30;99.90;;;;;;5064341;27;20215;-48
2023/11/07 02:51:55;;;;;;;7.27;6.17;;;9.30;99.90;;;;;;5098544;28;20197;-45
2023/11/07 02:54:22;;;;;;;6.53;5.53;;;9.30;99.90;;;;;;5089773;28;20250;-49
2023/11/07 02:56:49;;;;;;;11.77;4.80;;;9.30;99.90;;;;;;5098124;28;20189;-46
2023/11/07 02:59:17;;;;;;;9.17;6.03;;;9.30;99.90;;;;;;5101973;28;20254;-49
2023/11/07 03:01:44;;;;;;;7.80;5.47;;;9.30;99.90;;;;;;5100264;28;20194;-48
2023/11/07 03:04:13;;;;;;;6.67;5.17;;;9.30;99.90;;;;;;5067360;28;20919;-46
2023/11/07 03:06:40;;;;;;;8.23;5.57;;;9.30;99.90;;;;;;5098677;28;20208;-50
2023/11/07 03:09:07;;;;;;;8.67;5.07;;;9.30;99.90;;;;;;5090786;28;20286;-47
2023/11/07 03:11:33;;;;;;;9.63;5.40;;;9.30;99.90;;;;;;5100479;28;20189;-49
2023/11/07 03:14:00;;;;;;;8.47;5.57;;;9.30;99.90;;;;;;5097900;28;20258;-47
2023/11/07 03:16:29;;;;;;;13.07;5.50;;;9.30;99.90;;;;;;5100438;28;21676;-46
2023/11/07 03:18:56;;;;;;;7.13;4.97;;;9.30;99.90;;;;;;5064604;28;21657;-47
2023/11/07 03:21:22;;;;;;;6.27;5.63;;;9.30;99.90;;;;;;5098058;28;20682;-48
2023/11/07 03:23:49;;;;;;;11.03;5.63;;;9.30;99.90;;;;;;5104212;27;20238;-49
2023/11/07 03:26:16;;;;;;;9.90;4.77;;;9.30;99.90;;;;;;5095967;28;20252;-45
2023/11/07 03:28:43;;;;;;;7.90;4.40;;;9.30;99.90;;;;;;5093290;28;20228;-49
2023/11/07 03:31:10;;;;;;;8.40;4.87;;;9.30;99.90;;;;;;5102963;28;20266;-49
2023/11/07 03:33:39;;;;;;;8.90;5.17;;;9.30;99.90;;;;;;5104380;28;20652;-46
2023/11/07 03:36:06;;;;;;;7.80;4.97;;;9.30;99.90;;;;;;5071693;28;20316;-46
2023/11/07 03:38:34;;;;;;;10.70;4.80;;;9.30;99.90;;;;;;5104604;28;20189;-47
2023/11/07 03:41:03;;;;;;;8.43;4.80;;;9.30;99.90;;;;;;5092924;28;20193;-49
2023/11/07 03:43:30;;;;;;;12.90;5.27;;;9.30;99.90;;;;;;5105988;28;20659;-45
2023/11/07 03:45:57;;;;;;;9.80;4.67;;;9.30;99.90;;;;;;5101975;27;20208;-46
2023/11/07 03:48:24;;;;;;;12.30;5.00;;;9.30;99.90;;;;;;5106795;27;20196;-44
2023/11/07 03:50:53;;;;;;;6.10;4.60;;;9.30;99.90;;;;;;5073804;27;20205;-44
2023/11/07 03:53:20;;;;;;;9.47;4.57;;;9.30;99.90;;;;;;5109621;27;20209;-46
2023/11/07 03:55:47;;;;;;;10.27;4.83;;;9.30;99.90;;;;;;5101153;27;20213;-42
2023/11/07 03:58:13;;;;;;;10.40;4.53;;;9.30;99.90;;;;;;5110907;27;20214;-45
2023/11/07 04:00:42;;;;;;;10.97;4.80;;;9.40;99.90;;;;;;5108647;27;20197;-44
2023/11/07 04:03:09;;;;;;;9.77;4.03;;;9.40;99.90;;;;;;5104669;27;20190;-48
2023/11/07 04:05:35;;;;;;;7.20;4.00;;;9.40;99.90;;;;;;5102048;27;20860;-45
2023/11/07 04:08:04;;;;;;;4.80;4.20;;;9.40;99.90;;;;;;5083042;27;20236;-44
2023/11/07 04:10:31;;;;;;;7.37;4.53;;;9.40;99.90;;;;;;5107024;27;20185;-44
2023/11/07 04:12:58;;;;;;;5.87;5.10;;;9.40;99.90;;;;;;5089927;28;20197;-45
2023/11/07 04:15:27;;;;;;;10.10;4.77;;;9.40;99.90;;;;;;5105221;28;20221;-44
2023/11/07 04:17:54;;;;;;;7.70;4.60;;;9.40;99.90;;;;;;5099672;28;20196;-44
2023/11/07 04:20:22;;;;;;;9.33;4.97;;;9.40;99.90;;;;;;5105018;28;20251;-43
2023/11/07 04:22:49;;;;;;;12.47;4.70;;;9.40;99.90;;;;;;5067349;28;20208;-45
2023/11/07 04:25:19;;;;;;;8.73;4.40;;;9.40;99.90;;;;;;5105636;27;20221;-44
2023/11/07 04:27:46;;;;;;;7.53;4.57;;;9.50;99.90;;;;;;5092998;28;20215;-43
2023/11/07 04:30:14;;;;;;;8.77;4.27;;;9.40;99.90;;;;;;5106113;27;20229;-46
2023/11/07 04:32:41;;;;;;;9.77;5.30;;;9.50;99.90;;;;;;5103249;28;20668;-43
2023/11/07 04:35:11;;;;;;;7.40;4.53;;;9.50;99.90;;;;;;5101509;28;20258;-46
2023/11/07 04:37:38;;;;;;;7.63;4.50;;;9.40;99.90;;;;;;5069746;28;20722;-45
2023/11/07 04:40:06;;;;;;;5.20;4.63;;;9.50;99.90;;;;;;5101994;28;20201;-44
2023/11/07 04:42:35;;;;;;;11.03;5.20;;;9.50;99.90;;;;;;5105075;28;20238;-44
2023/11/07 04:45:02;;;;;;;11.13;5.43;;;9.50;99.90;;;;;;5095225;27;20221;-46
2023/11/07 04:47:29;;;;;;;5.13;4.40;;;9.50;99.90;;;;;;5106389;27;20706;-44
2023/11/07 04:49:59;;;;;;;9.20;5.00;;;9.50;99.90;;;;;;5100757;27;20337;-46
2023/11/07 04:52:26;;;;;;;9.47;4.93;;;9.50;99.90;;;;;;5074142;27;20228;-43
2023/11/07 04:54:52;;;;;;;6.03;4.20;;;9.50;99.90;;;;;;5101139;28;20220;-44
2023/11/07 04:57:20;;;;;;;9.43;4.67;;;9.50;99.90;;;;;;5104525;28;20243;-43
2023/11/07 04:59:48;;;;;;;10.50;4.90;;;9.50;99.90;;;;;;5092664;28;20671;-45
2023/11/07 05:02:15;;;;;;;9.03;4.90;;;9.50;99.90;;;;;;5103567;28;20209;-47
2023/11/07 05:04:45;;;;;;;10.13;5.30;;;9.50;99.90;;;;;;5103310;28;20220;-45
2023/11/07 05:07:12;;;;;;;5.13;4.67;;;9.50;99.90;;;;;;5101806;28;20843;-49
2023/11/07 05:09:39;;;;;;;8.33;4.73;;;9.50;99.90;;;;;;5071206;27;20227;-44
2023/11/07 05:12:06;;;;;;;7.50;4.70;;;9.50;99.90;;;;;;5103153;27;20900;-49
2023/11/07 05:14:33;;;;;;;9.40;4.87;;;9.50;99.90;;;;;;5080947;28;20965;-44
2023/11/07 05:17:01;;;;;;;8.30;4.40;;;9.50;99.90;;;;;;5102101;28;20197;-47
2023/11/07 05:19:28;;;;;;;8.20;5.50;;;9.50;99.90;;;;;;5097141;27;20315;-46
2023/11/07 05:21:55;;;;;;;10.63;5.60;;;9.50;99.90;;;;;;5087849;28;20333;-46
2023/11/07 05:24:23;;;;;;;8.20;5.10;;;9.50;99.90;;;;;;5075185;27;20205;-43
2023/11/07 05:26:49;;;;;;;8.00;5.03;;;9.50;99.90;;;;;;5105289;27;20262;-46
2023/11/07 05:29:16;;;;;;;7.37;5.80;;;9.50;99.90;;;;;;5078292;28;20209;-45
2023/11/07 05:31:43;;;;;;;9.83;5.80;;;9.50;99.90;;;;;;5098231;27;20190;-45
2023/11/07 05:34:12;;;;;;;10.77;5.03;;;9.60;99.90;;;;;;5096439;28;20193;-45
2023/11/07 05:36:39;;;;;;;6.67;5.40;;;9.60;99.90;;;;;;5094801;28;20189;-46
2023/11/07 05:39:06;;;;;;;12.70;5.60;;;9.60;99.90;;;;;;5071501;28;20284;-44
2023/11/07 05:41:33;;;;;;;7.53;6.37;;;9.50;99.90;;;;;;5101885;27;20193;-45
2023/11/07 05:44:00;;;;;;;8.97;5.87;;;9.50;99.90;;;;;;5090344;28;20672;-44
2023/11/07 05:46:27;;;;;;;12.43;6.20;;;9.50;99.90;;;;;;5095695;27;20213;-44
2023/11/07 05:48:54;;;;;;;15.37;6.57;;;9.60;99.90;;;;;;5102974;27;20205;-51
2023/11/07 05:51:23;;;;;;;10.93;5.63;;;9.50;99.90;;;;;;5099857;27;20262;-46
2023/11/07 05:53:50;;;;;;;9.40;5.57;;;9.60;99.90;;;;;;5103100;28;20194;-47
2023/11/07 05:56:17;;;;;;;10.00;6.27;;;9.60;99.90;;;;;;5069909;27;20228;-47
2023/11/07 05:58:44;;;;;;;13.37;6.37;;;9.60;99.90;;;;;;5099143;28;20198;-46
2023/11/07 06:01:10;;;;;;;10.73;5.33;;;9.50;99.90;;;;;;5093470;27;20197;-46
2023/11/07 06:03:37;;;;;;;14.17;6.50;;;9.50;99.90;;;;;;5098486;28;20911;-44
2023/11/07 06:06:04;;;;;;;12.23;6.50;;;9.50;99.90;;;;;;5096961;28;20222;-44
2023/11/07 06:08:32;;;;;;;12.13;6.37;;;9.50;99.90;;;;;;5094654;27;20209;-45
2023/11/07 06:10:59;;;;;;;9.73;6.23;;;9.50;99.90;;;;;;5068231;27;20197;-46
2023/11/07 06:13:26;;;;;;;15.17;6.03;;;9.40;99.90;;;;;;5097266;27;20201;-45
2023/11/07 06:15:53;;;;;;;11.30;5.93;;;9.40;99.90;;;;;;5088724;28;20245;-46
2023/11/07 06:18:21;;;;;;;11.40;6.43;;;9.40;99.90;;;;;;5101743;27;20202;-47
2023/11/07 06:20:49;;;;;;;8.87;6.53;;;9.30;99.90;;;;;;5098739;27;20592;-44
2023/11/07 06:23:16;;;;;;;12.17;6.63;;;9.30;99.90;;;;;;5090176;27;20239;-50
2023/11/07 06:25:45;;;;;;;8.33;6.00;;;9.30;99.90;;;;;;5098167;27;20310;-44
2023/11/07 06:28:12;;;;;;;11.40;7.00;;;9.30;99.90;;;;;;5070121;27;20703;-45
2023/11/07 06:30:39;;;;;;;12.03;6.87;;;9.20;99.90;;;;;;5085910;28;20205;-45
2023/11/07 06:33:05;;;;;;;8.77;6.40;;;9.20;99.90;;;;;;5092320;28;20540;-47
2023/11/07 06:35:34;;;;;;;8.43;5.70;;;9.20;99.90;;;;;;5087872;28;20205;-45
2023/11/07 06:38:00;;;;;;;10.47;5.83;;;9.20;99.90;;;;;;5092903;28;20656;-47
2023/11/07 06:40:27;;;;;;;14.93;6.70;;;9.20;99.90;;;;;;5082858;28;20194;-47
2023/11/07 06:42:56;;;;;;;6.20;5.57;;;9.20;99.90;;;;;;5069361;28;20278;-44
2023/11/07 06:45:23;;;;;;;11.53;6.83;;;9.20;99.90;;;;;;5090270;27;20319;-45
2023/11/07 06:47:51;;;;;;;10.13;6.20;;;9.20;99.90;;;;;;5087764;27;20698;-47
2023/11/07 06:50:18;;;;;;;9.13;6.63;;;9.20;99.90;;;;;;5089295;28;20194;-43
2023/11/07 06:52:49;;;;;;;7.73;5.43;;;9.20;99.90;;;;;;5094946;27;20201;-44
2023/11/07 06:55:21;;;;;;;9.67;6.30;;;9.20;99.90;;;;;;5097655;28;20213;-47
2023/11/07 06:57:48;;;;;;;9.87;6.57;;;9.30;99.90;;;;;;5098997;28;20188;-43
2023/11/07 07:00:21;;;;;;;9.33;5.87;;;9.30;99.90;;;;;;5070820;27;20189;-45
2023/11/07 07:02:48;;;;;;;6.90;6.03;;;9.30;99.90;;;;;;5104115;27;20244;-45
2023/11/07 07:05:16;;;;;;;11.10;5.80;;;9.30;99.90;;;;;;5089497;27;20901;-46
2023/11/07 07:07:43;;;;;;;12.93;6.50;;;9.30;99.90;;;;;;5095476;27;20305;-42
2023/11/07 07:10:12;;;;;;;9.27;5.20;;;9.30;99.90;;;;;;5097459;28;20999;-43
2023/11/07 07:12:39;;;;;;;11.70;5.93;;;9.40;99.90;;;;;;5078837;28;20231;-44
2023/11/07 07:15:07;;;;;;;12.13;5.87;;;9.40;99.90;;;;;;5063321;28;20215;-45
2023/11/07 07:17:36;;;;;;;8.53;5.83;;;9.50;99.90;;;;;;5075899;28;20306;-44
2023/11/07 07:20:03;;;;;;;12.30;6.37;;;9.50;99.90;;;;;;5092983;28;20212;-46
2023/11/07 07:22:32;;;;;;;8.70;6.20;;;9.50;99.90;;;;;;5081413;28;20294;-43
2023/11/07 07:25:05;;;;;;;13.77;7.10;;;9.50;99.90;;;;;;5089582;28;20312;-43
2023/11/07 07:27:33;;;;;;;10.07;6.43;;;9.60;99.90;;;;;;5097735;28;20225;-43
2023/11/07 07:30:00;;;;;;;12.67;6.70;;;9.60;99.90;;;;;;5060645;28;20284;-42
2023/11/07 07:32:27;;;;;;;12.57;6.13;;;9.60;99.90;;;;;;5091921;28;20221;-45
2023/11/07 07:34:56;;;;;;;12.93;6.53;;;9.70;99.90;;;;;;5077082;28;20294;-44
2023/11/07 07:37:23;;;;;;;12.93;6.40;;;9.70;99.90;;;;;;5083124;28;20211;-43
2023/11/07 07:39:50;;;;;;;9.37;6.20;;;9.70;99.90;;;;;;5078750;28;20284;-46
2023/11/07 07:42:17;;;;;;;13.20;6.37;;;9.80;99.90;;;;;;5094401;28;20899;-43
2023/11/07 07:44:45;;;;;;;5.90;5.00;;;9.80;99.90;;;;;;5068752;28;20221;-42
2023/11/07 07:47:15;;;;;;;9.37;5.27;;;9.80;99.90;;;;;;5079303;28;20267;-42
2023/11/07 07:49:42;;;;;;;8.57;5.33;;;9.80;99.90;;;;;;5082310;28;20212;-45
2023/11/07 07:52:10;;;;;;;8.13;4.87;;;9.80;99.90;;;;;;5078143;28;20205;-46
2023/11/07 07:54:38;;;;;;;8.73;5.57;;;9.90;99.90;;;;;;5093916;28;20274;-43
2023/11/07 07:57:08;;;;;;;7.77;5.43;;;9.90;99.90;;;;;;5096033;28;20201;-43
2023/11/07 07:59:40;;;;;;;10.43;5.43;;;9.90;99.90;;;;;;5067552;28;20201;-44
2023/11/07 08:02:08;;;;;;;7.07;4.57;;;9.90;99.90;;;;;;5092817;28;20196;-47
2023/11/07 08:04:35;;;;;;;10.40;5.87;;;9.90;99.90;;;;;;5084857;28;20213;-43
2023/11/07 08:07:02;;;;;;;5.77;4.67;;;9.90;99.90;;;;;;5083586;28;20208;-44
2023/11/07 08:09:30;;;;;;;12.07;5.50;;;10.00;99.90;;;;;;5083955;27;20224;-44
2023/11/07 08:11:57;;;;;;;8.73;5.10;;;10.00;99.90;;;;;;5104500;28;20612;-44
2023/11/07 08:14:24;;;;;;;12.37;5.37;;;10.00;99.90;;;;;;5101871;27;20961;-45
2023/11/07 08:16:51;;;;;;;8.70;4.60;;;10.00;99.90;;;;;;5070749;28;20824;-44
2023/11/07 08:19:20;;;;;;;7.67;4.67;;;10.10;99.90;;;;;;5091023;28;20316;-44
2023/11/07 08:21:48;;;;;;;10.70;5.33;;;10.10;99.90;;;;;;5089579;28;20308;-42
2023/11/07 08:24:15;;;;;;;7.90;5.20;;;10.10;99.90;;;;;;5079769;28;23388;-44
2023/11/07 08:26:44;;;;;;;6.70;4.43;;;10.10;99.90;;;;;;5098609;27;20622;-42
2023/11/07 08:29:11;;;;;;;12.23;5.33;;;10.20;99.90;;;;;;5097088;27;20219;-44
2023/11/07 08:31:38;;;;;;;7.17;5.00;;;10.20;99.90;;;;;;5071260;28;20723;-45
2023/11/07 08:34:09;;;;;;;8.63;4.73;;;10.20;99.90;;;;;;5093520;27;20274;-43
2023/11/07 08:36:37;;;;;;;6.90;5.13;;;10.20;99.90;;;;;;5093987;28;20233;-46
2023/11/07 08:39:05;;;;;;;7.50;5.17;;;10.20;99.90;;;;;;5086354;28;20552;-43
2023/11/07 08:41:32;;;;;;;9.30;5.27;;;10.20;99.90;;;;;;5096691;27;20228;-43
2023/11/07 08:44:00;;;;;;;6.97;3.70;;;10.30;99.90;;;;;;5086024;28;20206;-44
2023/11/07 08:46:27;;;;;;;8.90;5.30;;;10.30;99.90;;;;;;5063001;27;20278;-43
2023/11/07 08:48:54;;;;;;;9.10;4.93;;;10.30;99.90;;;;;;5098988;27;20209;-45
2023/11/07 08:51:21;;;;;;;8.17;4.77;;;10.30;99.90;;;;;;5085505;28;20209;-45
2023/11/07 08:53:48;;;;;;;9.30;5.63;;;10.30;99.90;;;;;;5087959;28;20294;-45
2023/11/07 08:56:15;;;;;;;10.53;5.53;;;10.30;99.90;;;;;;5085561;28;20217;-45
2023/11/07 08:58:42;;;;;;;8.80;5.30;;;10.30;99.90;;;;;;5105764;27;20243;-42
2023/11/07 09:01:11;;;;;;;8.57;5.57;;;10.30;99.90;;;;;;5100864;27;20193;-44
2023/11/07 09:03:38;;;;;;;11.93;4.83;;;10.30;99.90;;;;;;5063942;28;20354;-44
2023/11/07 09:06:06;;;;;;;9.43;5.50;;;10.40;99.90;;;;;;5085407;28;20225;-45
2023/11/07 09:08:33;;;;;;;6.57;4.57;;;10.40;99.90;;;;;;5093000;27;20237;-43
2023/11/07 09:11:01;;;;;;;8.87;5.33;;;10.40;99.90;;;;;;5087365;28;20202;-45
2023/11/07 09:13:28;;;;;;;11.20;5.87;;;10.40;99.90;;;;;;5096877;28;20197;-44
2023/11/07 09:15:58;;;;;;;9.47;5.30;;;10.40;99.90;;;;;;5096019;28;20202;-44
2023/11/07 09:18:27;;;;;;;9.53;4.70;;;10.40;99.90;;;;;;5061347;28;20202;-43
2023/11/07 09:20:53;;;;;;;7.73;4.90;;;10.50;99.90;;;;;;5079006;27;20207;-44
2023/11/07 09:23:20;;;;;;;7.87;4.77;;;10.50;99.90;;;;;;5084909;28;20261;-43
2023/11/07 09:25:47;;;;;;;8.83;4.97;;;10.50;99.90;;;;;;5078855;28;20994;-45
2023/11/07 09:28:14;;;;;;;7.13;4.47;;;10.50;99.90;;;;;;5098351;28;20745;-48
2023/11/07 09:30:41;;;;;;;7.37;4.57;;;10.60;99.90;;;;;;5096086;28;20185;-46
2023/11/07 09:33:09;;;;;;;6.57;4.50;;;10.60;99.90;;;;;;5097976;28;20193;-43
2023/11/07 09:35:37;;;;;;;12.90;5.20;;;10.60;99.90;;;;;;5068276;27;20217;-49
2023/11/07 09:38:04;;;;;;;7.23;4.60;;;10.60;99.90;;;;;;5090521;28;20198;-46
2023/11/07 09:40:31;;;;;;;8.53;5.00;;;10.70;99.90;;;;;;5093181;28;20215;-44
2023/11/07 09:43:01;;;;;;;11.33;5.10;;;10.70;99.90;;;;;;5087568;28;20198;-41
2023/11/07 09:45:35;;;;;;;8.73;4.67;;;10.70;99.90;;;;;;5097075;28;20263;-44
2023/11/07 09:48:02;;;;;;;9.17;4.90;;;10.80;99.90;;;;;;5095069;27;21644;-42
2023/11/07 09:50:33;;;;;;;7.50;4.87;;;10.80;99.90;;;;;;5066012;27;20205;-48
2023/11/07 09:53:07;;;;;;;5.90;4.57;;;10.80;99.90;;;;;;5084924;28;20266;-41
2023/11/07 09:55:34;;;;;;;9.73;4.93;;;10.80;99.90;;;;;;5090322;27;20217;-44
2023/11/07 09:58:07;;;;;;;5.90;5.00;;;10.80;99.90;;;;;;5076882;28;20197;-42
2023/11/07 10:00:35;;;;;;;11.07;5.03;;;10.90;99.90;;;;;;5096316;28;20193;-44
2023/11/07 10:03:03;;;;;;;5.77;4.63;;;10.90;99.90;;;;;;5095448;28;20198;-42
2023/11/07 10:05:31;;;;;;;6.70;4.40;;;10.90;99.90;;;;;;5071959;27;20722;-42
2023/11/07 10:07:59;;;;;;;11.80;4.47;;;10.90;99.90;;;;;;5095558;27;20196;-43
2023/11/07 10:10:27;;;;;;;5.17;4.30;;;10.90;99.90;;;;;;5094763;28;20197;-43
2023/11/07 10:12:54;;;;;;;5.00;4.43;;;10.90;99.90;;;;;;5080809;28;21012;-44
2023/11/07 10:15:24;;;;;;;5.77;4.37;;;10.90;99.90;;;;;;5098302;28;20266;-43
2023/11/07 10:17:58;;;;;;;8.90;4.63;;;10.90;99.90;;;;;;5096533;28;20725;-44
2023/11/07 10:20:26;;;;;;;6.67;4.27;;;10.90;99.90;;;;;;5099859;27;20345;-48
2023/11/07 10:22:53;;;;;;;7.50;4.17;;;10.90;99.90;;;;;;5066573;28;20446;-45
2023/11/07 10:25:31;;;;;;;6.67;4.10;;;10.90;99.90;;;;;;5086339;28;20229;-43
2023/11/07 10:28:03;;;;;;;5.60;4.40;;;10.90;99.90;;;;;;5079474;28;20217;-44
2023/11/07 10:30:39;;;;;;;8.63;4.80;;;10.90;99.90;;;;;;5094377;28;20193;-46
2023/11/07 10:33:07;;;;;;;7.90;5.50;;;10.80;99.90;;;;;;5099947;28;20200;-44
2023/11/07 10:35:51;;;;;;;7.93;5.20;;;10.80;99.90;;;;;;5098858;28;20262;-44
2023/11/07 10:38:18;;;;;;;6.13;4.93;;;10.70;99.90;;;;;;5071058;28;20201;-44
2023/11/07 10:40:49;;;;;;;6.30;4.17;;;10.70;99.90;;;;;;5086980;28;20285;-46
2023/11/07 10:43:30;;;;;;;7.93;4.60;;;10.70;99.90;;;;;;5083606;28;20193;-43
2023/11/07 10:46:01;;;;;;;3.90;3.60;;;10.70;99.90;;;;;;5094293;28;20217;-44
2023/11/07 10:48:31;;;;;;;5.33;4.60;;;10.80;99.90;;;;;;5098709;28;20217;-46
2023/11/07 10:51:02;;;;;;;5.43;4.10;;;10.90;99.90;;;;;;5095529;28;20940;-42
2023/11/07 10:53:29;;;;;;;5.03;4.03;;;11.00;99.90;;;;;;5063332;28;20866;-45
2023/11/07 10:55:59;;;;;;;4.83;4.40;;;11.00;99.90;;;;;;5073234;28;20225;-43
2023/11/07 10:58:32;;;;;;;4.40;4.00;;;11.10;99.90;;;;;;5086785;28;20276;-46
2023/11/07 11:01:04;;;;;;;5.13;4.20;;;11.20;99.90;;;;;;5097490;28;20181;-45
2023/11/07 11:03:31;;;;;;;8.13;4.37;;;11.30;99.90;;;;;;5088205;28;20210;-46
2023/11/07 11:06:00;;;;;;;6.93;4.27;;;11.40;99.90;;;;;;5092596;28;20285;-42
2023/11/07 11:08:28;;;;;;;6.53;4.20;;;11.60;99.90;;;;;;5062917;28;20300;-47
2023/11/07 11:10:58;;;;;;;4.17;3.67;;;11.60;99.90;;;;;;5081443;28;20201;-44
2023/11/07 11:13:25;;;;;;;4.37;4.00;;;11.70;99.90;;;;;;5071584;28;20240;-46
2023/11/07 11:15:54;;;;;;;6.80;3.90;;;11.70;99.90;;;;;;5097237;28;20223;-47
2023/11/07 11:18:27;;;;;;;5.47;3.70;;;11.70;99.90;;;;;;5072292;28;20824;-44
2023/11/07 11:21:02;;;;;;;4.47;3.87;;;11.70;99.90;;;;;;5086908;28;20197;-44
2023/11/07 11:23:39;;;;;;;4.53;3.57;;;11.70;99.90;;;;;;5060269;28;20212;-43
2023/11/07 11:26:25;;;;;;;4.27;3.87;;;11.70;99.90;;;;;;5087823;28;20220;-45
2023/11/07 11:28:53;;;;;;;4.07;3.10;;;11.60;99.90;;;;;;5097183;28;20219;-45
2023/11/07 11:31:21;;;;;;;4.57;3.50;;;11.50;99.90;;;;;;5088580;28;20886;-45
2023/11/07 11:33:50;;;;;;;5.93;3.30;;;11.50;99.90;;;;;;5081849;28;20608;-42
2023/11/07 11:36:33;;;;;;;4.53;3.20;;;11.60;99.90;;;;;;5094719;28;20939;-43
2023/11/07 11:39:00;;;;;;;3.50;3.20;;;11.50;99.90;;;;;;5066272;28;20584;-46
2023/11/07 11:41:55;;;;;;;5.73;4.10;;;11.40;99.90;;;;;;5100312;28;20185;-46
2023/11/07 11:44:24;;;;;;;4.03;3.70;;;11.40;99.90;;;;;;5086105;28;22642;-45
2023/11/07 11:46:51;;;;;;;3.40;3.10;;;11.40;99.90;;;;;;5104831;27;20262;-44
2023/11/07 11:49:21;;;;;;;5.33;3.73;;;11.40;99.90;;;;;;5092551;28;21065;-43
2023/11/07 11:51:51;;;;;;;3.57;3.27;;;11.30;99.90;;;;;;5105589;27;20782;-45
2023/11/07 11:54:54;;;;;;;3.63;3.30;;;11.30;99.90;;;;;;5070328;27;20193;-47
2023/11/07 11:57:22;;;;;;;4.07;3.13;;;11.30;99.90;;;;;;5089690;28;20200;-44
2023/11/07 11:59:54;;;;;;;3.63;3.23;;;11.30;99.90;;;;;;5098988;27;20215;-47
2023/11/07 12:02:39;;;;;;;4.17;3.73;;;11.30;99.90;;;;;;5096745;28;20193;-44
2023/11/07 12:05:17;;;;;;;5.10;3.10;;;11.30;99.90;;;;;;5094147;27;20224;-45
2023/11/07 12:07:45;;;;;;;4.70;3.20;;;11.40;99.90;;;;;;5097470;27;20201;-44
2023/11/07 12:10:14;;;;;;;5.27;3.00;;;11.50;99.90;;;;;;5062374;28;20206;-47
2023/11/07 12:12:43;;;;;;;5.07;3.00;;;11.60;99.90;;;;;;5093896;27;20250;-44
2023/11/07 12:15:12;;;;;;;5.77;3.00;;;11.70;99.90;;;;;;5104538;27;20216;-45
2023/11/07 12:17:47;;;;;;;2.80;2.50;;;11.80;99.90;;;;;;5092456;28;20304;-45
2023/11/07 12:20:15;;;;;;;3.53;2.20;;;11.90;99.90;;;;;;5088025;27;20207;-43
2023/11/07 12:22:46;;;;;;;4.93;2.70;;;12.00;99.90;;;;;;5101636;27;20193;-44
2023/11/07 12:25:16;;;;;;;3.97;2.27;;;11.90;99.90;;;;;;5065257;28;20232;-42
2023/11/07 12:28:02;;;;;;;6.37;2.20;;;11.80;99.90;;;;;;5087825;27;21045;-42
2023/11/07 12:30:29;;;;;;;3.83;2.03;;;11.80;99.90;;;;;;5097691;28;20221;-45
2023/11/07 12:33:00;;;;;;;2.23;1.73;;;11.80;99.90;;;;;;5102584;27;20201;-43
2023/11/07 12:35:27;;;;;;;1.70;1.60;;;11.70;99.90;;;;;;5099322;27;20225;-50
2023/11/07 12:37:56;;;;;;;3.60;1.53;;;11.70;99.90;;;;;;5104140;27;20201;-49
2023/11/07 12:40:23;;;;;;;2.33;1.80;;;11.70;99.90;;;;;;5076812;27;20230;-45
2023/11/07 12:42:52;;;;;;;2.57;1.53;;;11.70;99.90;;;;;;5102626;27;20285;-45
2023/11/07 12:45:25;;;;;;;3.33;1.63;;;11.80;99.90;;;;;;5101074;27;20221;-46
2023/11/07 12:47:59;;;;;;;1.57;1.47;;;11.80;99.90;;;;;;5093301;27;20206;-44
2023/11/07 12:50:33;;;;;;;4.27;1.67;;;11.80;99.90;;;;;;5084745;27;20217;-45
2023/11/07 12:53:02;;;;;;;1.87;1.40;;;11.80;99.90;;;;;;5098876;28;20614;-42
2023/11/07 12:55:30;;;;;;;5.80;1.60;;;11.90;99.90;;;;;;5064243;27;20228;-50
2023/11/07 12:58:00;;;;;;;3.03;1.50;;;11.90;99.90;;;;;;5117574;27;20185;-42